CheckWX is a tool to help pilots better visualize weather data.  It is not intended as a substitute for an official pre-flight weather briefing.

18:36:42 UTC

CYPA METAR
Prince Albert Glass Field Airport
Prince Albert, Canada
Current

26 mins ago

CYPA 261811Z 15004KT 140V210 5SM BR OVC004 02/01 A2984 RMK ST8 SLP129
Observed
Mar-26 @ 18:11 UTC
Wind
  • 150° at 4 KTS
Visibility
5 SM
Flight Rules
LIFR
Conditions
Mist
Cloud Levels
  • Overcast at 400' AGL
Temperature
C / 36°F
Dewpoint
C / 34°F
Humidity
93%
Altimeter
29.84" Hg
Pressure
1012.9 hPa
Previous

37 mins ago

CYPA 261800Z 16003KT 120V180 5SM BR OVC003 01/01 A2984 RMK ST8 SLP129
Observed
Mar-26 @ 18:00 UTC
Wind
  • 160° at 3 KTS
Visibility
5 SM
Flight Rules
LIFR
Conditions
Mist
Cloud Levels
  • Overcast at 300' AGL
Temperature
C / 34°F
Dewpoint
C / 34°F
Humidity
100%
Altimeter
29.84" Hg
Pressure
1012.9 hPa
Previous

2 hours ago

CYPA 261700Z 23004KT 5SM BR OVC003 01/M00 A2984 RMK ST8 WND ESTD SLP131
Observed
Mar-26 @ 17:00 UTC
Wind
  • 230° at 4 KTS
Visibility
5 SM
Flight Rules
LIFR
Conditions
Mist
Cloud Levels
  • Overcast at 300' AGL
Temperature
C / 34°F
Dewpoint
C / 32°F
Humidity
93%
Altimeter
29.84" Hg
Pressure
1013.1 hPa